sensor_id;sensor_type;location;lat;lon;timestamp;P1;durP1;ratioP1;P2;durP2;ratioP2
79574;SDS011;69044;48.198;11.468;2024-03-08T00:00:09;13.27;;;5.90;;
79574;SDS011;69044;48.198;11.468;2024-03-08T00:02:39;16.23;;;6.47;;
79574;SDS011;69044;48.198;11.468;2024-03-08T00:05:07;12.20;;;5.68;;
79574;SDS011;69044;48.198;11.468;2024-03-08T00:07:35;11.63;;;5.55;;
79574;SDS011;69044;48.198;11.468;2024-03-08T00:10:02;11.65;;;4.97;;
79574;SDS011;69044;48.198;11.468;2024-03-08T00:12:30;12.15;;;5.18;;
79574;SDS011;69044;48.198;11.468;2024-03-08T00:14:57;12.52;;;5.45;;
79574;SDS011;69044;48.198;11.468;2024-03-08T00:17:24;11.80;;;5.28;;
79574;SDS011;69044;48.198;11.468;2024-03-08T00:19:54;12.05;;;5.70;;
79574;SDS011;69044;48.198;11.468;2024-03-08T00:22:21;10.82;;;5.05;;
79574;SDS011;69044;48.198;11.468;2024-03-08T00:24:48;12.10;;;5.20;;
79574;SDS011;69044;48.198;11.468;2024-03-08T00:27:16;12.68;;;5.25;;
79574;SDS011;69044;48.198;11.468;2024-03-08T00:29:46;15.27;;;6.05;;
79574;SDS011;69044;48.198;11.468;2024-03-08T00:32:13;12.05;;;5.50;;
79574;SDS011;69044;48.198;11.468;2024-03-08T00:34:40;15.32;;;5.75;;
79574;SDS011;69044;48.198;11.468;2024-03-08T00:37:09;14.07;;;5.70;;
79574;SDS011;69044;48.198;11.468;2024-03-08T00:39:37;12.25;;;5.85;;
79574;SDS011;69044;48.198;11.468;2024-03-08T00:42:04;13.07;;;5.47;;
79574;SDS011;69044;48.198;11.468;2024-03-08T00:44:31;12.70;;;5.55;;
79574;SDS011;69044;48.198;11.468;2024-03-08T00:46:58;14.35;;;6.35;;
79574;SDS011;69044;48.198;11.468;2024-03-08T00:49:25;12.07;;;5.07;;
79574;SDS011;69044;48.198;11.468;2024-03-08T00:51:53;13.30;;;6.32;;
79574;SDS011;69044;48.198;11.468;2024-03-08T00:54:21;13.60;;;5.65;;
79574;SDS011;69044;48.198;11.468;2024-03-08T00:56:48;15.13;;;5.82;;
79574;SDS011;69044;48.198;11.468;2024-03-08T00:59:16;11.10;;;5.50;;
79574;SDS011;69044;48.198;11.468;2024-03-08T01:01:43;12.77;;;5.57;;
79574;SDS011;69044;48.198;11.468;2024-03-08T01:04:11;13.30;;;4.88;;
79574;SDS011;69044;48.198;11.468;2024-03-08T01:06:38;12.48;;;5.53;;
79574;SDS011;69044;48.198;11.468;2024-03-08T01:09:05;14.52;;;5.65;;
79574;SDS011;69044;48.198;11.468;2024-03-08T01:11:34;13.52;;;5.57;;
79574;SDS011;69044;48.198;11.468;2024-03-08T01:14:01;13.40;;;5.93;;
79574;SDS011;69044;48.198;11.468;2024-03-08T01:16:28;13.73;;;5.53;;
79574;SDS011;69044;48.198;11.468;2024-03-08T01:18:55;13.82;;;6.40;;
79574;SDS011;69044;48.198;11.468;2024-03-08T01:21:23;12.88;;;5.80;;
79574;SDS011;69044;48.198;11.468;2024-03-08T01:23:50;13.68;;;5.75;;
79574;SDS011;69044;48.198;11.468;2024-03-08T01:26:17;12.70;;;5.50;;
79574;SDS011;69044;48.198;11.468;2024-03-08T01:28:45;13.23;;;5.93;;
79574;SDS011;69044;48.198;11.468;2024-03-08T01:31:13;16.60;;;6.10;;
79574;SDS011;69044;48.198;11.468;2024-03-08T01:33:41;13.55;;;6.38;;
79574;SDS011;69044;48.198;11.468;2024-03-08T01:36:09;12.85;;;5.38;;
79574;SDS011;69044;48.198;11.468;2024-03-08T01:38:36;15.40;;;6.57;;
79574;SDS011;69044;48.198;11.468;2024-03-08T01:41:09;19.27;;;6.90;;
79574;SDS011;69044;48.198;11.468;2024-03-08T01:43:39;13.57;;;6.35;;
79574;SDS011;69044;48.198;11.468;2024-03-08T01:46:07;14.38;;;5.85;;
79574;SDS011;69044;48.198;11.468;2024-03-08T01:48:36;16.35;;;6.65;;
79574;SDS011;69044;48.198;11.468;2024-03-08T01:51:04;15.07;;;6.47;;
79574;SDS011;69044;48.198;11.468;2024-03-08T01:53:31;14.15;;;5.95;;
79574;SDS011;69044;48.198;11.468;2024-03-08T01:55:58;14.68;;;6.05;;
79574;SDS011;69044;48.198;11.468;2024-03-08T01:58:26;13.02;;;5.43;;
79574;SDS011;69044;48.198;11.468;2024-03-08T02:00:54;17.17;;;5.90;;
79574;SDS011;69044;48.198;11.468;2024-03-08T02:03:22;13.05;;;5.72;;
79574;SDS011;69044;48.198;11.468;2024-03-08T02:05:49;13.02;;;5.80;;
79574;SDS011;69044;48.198;11.468;2024-03-08T02:08:17;14.38;;;6.53;;
79574;SDS011;69044;48.198;11.468;2024-03-08T02:10:44;13.98;;;5.93;;
79574;SDS011;69044;48.198;11.468;2024-03-08T02:13:12;14.32;;;5.97;;
79574;SDS011;69044;48.198;11.468;2024-03-08T02:15:51;17.08;;;6.03;;
79574;SDS011;69044;48.198;11.468;2024-03-08T02:18:19;12.82;;;5.45;;
79574;SDS011;69044;48.198;11.468;2024-03-08T02:20:48;11.82;;;5.95;;
79574;SDS011;69044;48.198;11.468;2024-03-08T02:23:17;16.00;;;6.50;;
79574;SDS011;69044;48.198;11.468;2024-03-08T02:25:45;16.77;;;6.15;;
79574;SDS011;69044;48.198;11.468;2024-03-08T02:28:12;15.52;;;6.72;;
79574;SDS011;69044;48.198;11.468;2024-03-08T02:30:40;16.15;;;6.25;;
79574;SDS011;69044;48.198;11.468;2024-03-08T02:33:07;17.05;;;7.35;;
79574;SDS011;69044;48.198;11.468;2024-03-08T02:35:35;13.00;;;5.95;;
79574;SDS011;69044;48.198;11.468;2024-03-08T02:38:04;13.20;;;6.05;;
79574;SDS011;69044;48.198;11.468;2024-03-08T02:40:32;13.98;;;6.65;;
79574;SDS011;69044;48.198;11.468;2024-03-08T02:42:59;13.35;;;6.13;;
79574;SDS011;69044;48.198;11.468;2024-03-08T02:45:26;15.55;;;6.22;;
79574;SDS011;69044;48.198;11.468;2024-03-08T02:47:53;13.05;;;5.95;;
79574;SDS011;69044;48.198;11.468;2024-03-08T02:50:21;14.00;;;5.95;;
79574;SDS011;69044;48.198;11.468;2024-03-08T02:52:51;15.95;;;6.63;;
79574;SDS011;69044;48.198;11.468;2024-03-08T02:55:19;13.60;;;6.25;;
79574;SDS011;69044;48.198;11.468;2024-03-08T02:57:46;15.23;;;6.82;;
79574;SDS011;69044;48.198;11.468;2024-03-08T03:00:14;14.05;;;5.97;;
79574;SDS011;69044;48.198;11.468;2024-03-08T03:02:42;13.38;;;5.72;;
79574;SDS011;69044;48.198;11.468;2024-03-08T03:05:09;14.82;;;6.82;;
79574;SDS011;69044;48.198;11.468;2024-03-08T03:07:37;16.27;;;6.68;;
79574;SDS011;69044;48.198;11.468;2024-03-08T03:13:53;16.35;;;6.65;;
79574;SDS011;69044;48.198;11.468;2024-03-08T03:16:21;14.52;;;6.07;;
79574;SDS011;69044;48.198;11.468;2024-03-08T03:18:48;11.70;;;5.78;;
79574;SDS011;69044;48.198;11.468;2024-03-08T03:21:16;17.85;;;6.70;;
79574;SDS011;69044;48.198;11.468;2024-03-08T03:23:43;14.00;;;6.75;;
79574;SDS011;69044;48.198;11.468;2024-03-08T03:26:10;16.70;;;6.60;;
79574;SDS011;69044;48.198;11.468;2024-03-08T03:28:38;17.55;;;6.47;;
79574;SDS011;69044;48.198;11.468;2024-03-08T03:31:07;14.63;;;6.40;;
79574;SDS011;69044;48.198;11.468;2024-03-08T03:33:35;16.38;;;6.65;;
79574;SDS011;69044;48.198;11.468;2024-03-08T03:36:03;15.05;;;6.88;;
79574;SDS011;69044;48.198;11.468;2024-03-08T03:38:30;16.65;;;6.85;;
79574;SDS011;69044;48.198;11.468;2024-03-08T03:40:58;18.95;;;7.07;;
79574;SDS011;69044;48.198;11.468;2024-03-08T03:43:32;18.17;;;6.78;;
79574;SDS011;69044;48.198;11.468;2024-03-08T03:45:59;15.35;;;6.32;;
79574;SDS011;69044;48.198;11.468;2024-03-08T03:48:27;16.70;;;6.43;;
79574;SDS011;69044;48.198;11.468;2024-03-08T03:50:55;15.93;;;6.57;;
79574;SDS011;69044;48.198;11.468;2024-03-08T03:53:22;12.32;;;6.00;;
79574;SDS011;69044;48.198;11.468;2024-03-08T03:55:49;18.25;;;7.07;;
79574;SDS011;69044;48.198;11.468;2024-03-08T03:58:16;20.45;;;6.43;;
79574;SDS011;69044;48.198;11.468;2024-03-08T04:00:48;15.50;;;6.78;;
79574;SDS011;69044;48.198;11.468;2024-03-08T04:03:15;14.90;;;6.70;;
79574;SDS011;69044;48.198;11.468;2024-03-08T04:05:44;16.60;;;7.50;;
79574;SDS011;69044;48.198;11.468;2024-03-08T04:08:13;14.68;;;7.07;;
79574;SDS011;69044;48.198;11.468;2024-03-08T04:10:40;13.43;;;6.57;;
79574;SDS011;69044;48.198;11.468;2024-03-08T04:13:07;18.75;;;7.82;;
79574;SDS011;69044;48.198;11.468;2024-03-08T04:15:35;17.92;;;7.28;;
79574;SDS011;69044;48.198;11.468;2024-03-08T04:18:03;15.45;;;6.28;;
79574;SDS011;69044;48.198;11.468;2024-03-08T04:20:31;18.00;;;7.53;;
79574;SDS011;69044;48.198;11.468;2024-03-08T04:22:59;16.05;;;6.47;;
79574;SDS011;69044;48.198;11.468;2024-03-08T04:25:26;18.58;;;6.65;;
79574;SDS011;69044;48.198;11.468;2024-03-08T04:27:53;18.17;;;7.03;;
79574;SDS011;69044;48.198;11.468;2024-03-08T04:30:21;17.25;;;7.75;;
79574;SDS011;69044;48.198;11.468;2024-03-08T04:32:48;20.90;;;7.88;;
79574;SDS011;69044;48.198;11.468;2024-03-08T04:35:15;14.73;;;6.78;;
79574;SDS011;69044;48.198;11.468;2024-03-08T04:37:42;14.57;;;6.07;;
79574;SDS011;69044;48.198;11.468;2024-03-08T04:40:12;15.65;;;6.20;;
79574;SDS011;69044;48.198;11.468;2024-03-08T04:42:39;14.55;;;6.57;;
79574;SDS011;69044;48.198;11.468;2024-03-08T04:45:08;16.08;;;7.10;;
79574;SDS011;69044;48.198;11.468;2024-03-08T04:47:36;18.77;;;6.55;;
79574;SDS011;69044;48.198;11.468;2024-03-08T04:50:04;15.52;;;7.47;;
79574;SDS011;69044;48.198;11.468;2024-03-08T04:52:31;19.73;;;8.25;;
79574;SDS011;69044;48.198;11.468;2024-03-08T04:54:58;20.38;;;7.50;;
79574;SDS011;69044;48.198;11.468;2024-03-08T04:57:27;15.40;;;7.47;;
79574;SDS011;69044;48.198;11.468;2024-03-08T04:59:54;19.10;;;8.15;;
79574;SDS011;69044;48.198;11.468;2024-03-08T05:02:21;18.35;;;7.70;;
79574;SDS011;69044;48.198;11.468;2024-03-08T05:04:49;19.00;;;7.68;;
79574;SDS011;69044;48.198;11.468;2024-03-08T05:07:16;19.30;;;7.72;;
79574;SDS011;69044;48.198;11.468;2024-03-08T05:09:45;18.08;;;7.55;;
79574;SDS011;69044;48.198;11.468;2024-03-08T05:12:17;17.80;;;7.35;;
79574;SDS011;69044;48.198;11.468;2024-03-08T05:14:46;22.98;;;8.00;;
79574;SDS011;69044;48.198;11.468;2024-03-08T05:17:15;20.95;;;8.25;;
79574;SDS011;69044;48.198;11.468;2024-03-08T05:19:43;21.30;;;9.43;;
79574;SDS011;69044;48.198;11.468;2024-03-08T05:22:10;22.05;;;9.32;;
79574;SDS011;69044;48.198;11.468;2024-03-08T05:24:37;22.30;;;8.70;;
79574;SDS011;69044;48.198;11.468;2024-03-08T05:27:04;20.98;;;9.02;;
79574;SDS011;69044;48.198;11.468;2024-03-08T05:29:31;22.02;;;9.20;;
79574;SDS011;69044;48.198;11.468;2024-03-08T05:32:00;21.48;;;8.10;;
79574;SDS011;69044;48.198;11.468;2024-03-08T05:34:28;25.13;;;9.52;;
79574;SDS011;69044;48.198;11.468;2024-03-08T05:36:55;23.85;;;9.63;;
79574;SDS011;69044;48.198;11.468;2024-03-08T05:39:23;24.05;;;9.77;;
79574;SDS011;69044;48.198;11.468;2024-03-08T05:41:51;22.15;;;9.13;;
79574;SDS011;69044;48.198;11.468;2024-03-08T05:44:18;18.52;;;8.02;;
79574;SDS011;69044;48.198;11.468;2024-03-08T05:46:45;22.05;;;9.10;;
79574;SDS011;69044;48.198;11.468;2024-03-08T05:49:14;22.38;;;9.20;;
79574;SDS011;69044;48.198;11.468;2024-03-08T05:51:41;22.75;;;8.80;;
79574;SDS011;69044;48.198;11.468;2024-03-08T05:54:09;22.23;;;8.82;;
79574;SDS011;69044;48.198;11.468;2024-03-08T05:59:06;19.58;;;8.18;;
79574;SDS011;69044;48.198;11.468;2024-03-08T06:01:33;19.35;;;8.90;;
79574;SDS011;69044;48.198;11.468;2024-03-08T06:04:02;22.75;;;9.40;;
79574;SDS011;69044;48.198;11.468;2024-03-08T06:06:31;19.67;;;7.60;;
79574;SDS011;69044;48.198;11.468;2024-03-08T06:08:58;23.40;;;8.43;;
79574;SDS011;69044;48.198;11.468;2024-03-08T06:11:25;23.83;;;9.50;;
79574;SDS011;69044;48.198;11.468;2024-03-08T06:13:54;21.00;;;8.90;;
79574;SDS011;69044;48.198;11.468;2024-03-08T06:16:25;20.30;;;8.82;;
79574;SDS011;69044;48.198;11.468;2024-03-08T06:18:55;17.23;;;7.72;;
79574;SDS011;69044;48.198;11.468;2024-03-08T06:21:23;24.60;;;9.30;;
79574;SDS011;69044;48.198;11.468;2024-03-08T06:23:54;26.98;;;9.50;;
79574;SDS011;69044;48.198;11.468;2024-03-08T06:26:23;21.73;;;8.55;;
79574;SDS011;69044;48.198;11.468;2024-03-08T06:28:50;19.35;;;8.32;;
79574;SDS011;69044;48.198;11.468;2024-03-08T06:31:17;25.73;;;9.38;;
79574;SDS011;69044;48.198;11.468;2024-03-08T06:33:45;23.95;;;9.35;;
79574;SDS011;69044;48.198;11.468;2024-03-08T06:36:15;22.33;;;8.93;;
79574;SDS011;69044;48.198;11.468;2024-03-08T06:38:44;22.80;;;8.32;;
79574;SDS011;69044;48.198;11.468;2024-03-08T06:41:13;22.05;;;8.73;;
79574;SDS011;69044;48.198;11.468;2024-03-08T06:43:41;23.17;;;9.63;;
79574;SDS011;69044;48.198;11.468;2024-03-08T06:46:08;29.65;;;11.27;;
79574;SDS011;69044;48.198;11.468;2024-03-08T06:48:38;23.00;;;8.95;;
79574;SDS011;69044;48.198;11.468;2024-03-08T06:51:05;23.45;;;8.48;;
79574;SDS011;69044;48.198;11.468;2024-03-08T06:53:32;21.33;;;8.45;;
79574;SDS011;69044;48.198;11.468;2024-03-08T06:56:00;26.48;;;8.32;;
79574;SDS011;69044;48.198;11.468;2024-03-08T06:58:29;21.58;;;7.72;;
79574;SDS011;69044;48.198;11.468;2024-03-08T07:00:56;22.30;;;8.57;;
79574;SDS011;69044;48.198;11.468;2024-03-08T07:03:26;20.40;;;8.27;;
79574;SDS011;69044;48.198;11.468;2024-03-08T07:05:55;20.90;;;8.18;;
79574;SDS011;69044;48.198;11.468;2024-03-08T07:08:23;22.35;;;8.70;;
79574;SDS011;69044;48.198;11.468;2024-03-08T07:10:53;23.02;;;8.15;;
79574;SDS011;69044;48.198;11.468;2024-03-08T07:13:20;22.10;;;7.82;;
79574;SDS011;69044;48.198;11.468;2024-03-08T07:15:49;20.08;;;8.80;;
79574;SDS011;69044;48.198;11.468;2024-03-08T07:18:18;20.67;;;8.27;;
79574;SDS011;69044;48.198;11.468;2024-03-08T07:20:45;23.67;;;8.63;;
79574;SDS011;69044;48.198;11.468;2024-03-08T07:23:12;23.08;;;8.95;;
79574;SDS011;69044;48.198;11.468;2024-03-08T07:25:59;19.95;;;7.75;;
79574;SDS011;69044;48.198;11.468;2024-03-08T07:28:27;18.33;;;7.45;;
79574;SDS011;69044;48.198;11.468;2024-03-08T07:30:58;22.70;;;7.28;;
79574;SDS011;69044;48.198;11.468;2024-03-08T07:33:42;19.70;;;7.45;;
79574;SDS011;69044;48.198;11.468;2024-03-08T07:36:09;17.35;;;7.85;;
79574;SDS011;69044;48.198;11.468;2024-03-08T07:38:36;19.77;;;7.50;;
79574;SDS011;69044;48.198;11.468;2024-03-08T07:41:04;15.93;;;7.15;;
79574;SDS011;69044;48.198;11.468;2024-03-08T07:43:31;17.25;;;7.13;;
79574;SDS011;69044;48.198;11.468;2024-03-08T07:45:59;17.17;;;7.00;;
79574;SDS011;69044;48.198;11.468;2024-03-08T07:48:26;20.10;;;7.95;;
79574;SDS011;69044;48.198;11.468;2024-03-08T07:50:54;19.33;;;7.70;;
79574;SDS011;69044;48.198;11.468;2024-03-08T07:53:21;17.55;;;7.28;;
79574;SDS011;69044;48.198;11.468;2024-03-08T07:55:50;18.30;;;6.72;;
79574;SDS011;69044;48.198;11.468;2024-03-08T07:58:17;19.33;;;7.78;;
79574;SDS011;69044;48.198;11.468;2024-03-08T08:00:44;30.10;;;10.93;;
79574;SDS011;69044;48.198;11.468;2024-03-08T08:03:13;21.45;;;8.73;;
79574;SDS011;69044;48.198;11.468;2024-03-08T08:08:07;15.75;;;6.70;;
79574;SDS011;69044;48.198;11.468;2024-03-08T08:10:36;18.20;;;7.55;;
79574;SDS011;69044;48.198;11.468;2024-03-08T08:13:03;18.83;;;7.88;;
79574;SDS011;69044;48.198;11.468;2024-03-08T08:15:31;16.20;;;6.53;;
79574;SDS011;69044;48.198;11.468;2024-03-08T08:17:58;19.85;;;7.72;;
79574;SDS011;69044;48.198;11.468;2024-03-08T08:20:27;19.92;;;7.70;;
79574;SDS011;69044;48.198;11.468;2024-03-08T08:22:54;18.63;;;7.25;;
79574;SDS011;69044;48.198;11.468;2024-03-08T08:25:22;15.55;;;6.40;;
79574;SDS011;69044;48.198;11.468;2024-03-08T08:27:50;18.50;;;7.82;;
79574;SDS011;69044;48.198;11.468;2024-03-08T08:30:18;17.88;;;8.23;;
79574;SDS011;69044;48.198;11.468;2024-03-08T08:32:46;22.08;;;7.60;;
79574;SDS011;69044;48.198;11.468;2024-03-08T08:35:14;20.90;;;8.02;;
79574;SDS011;69044;48.198;11.468;2024-03-08T08:37:42;18.40;;;7.43;;
79574;SDS011;69044;48.198;11.468;2024-03-08T08:42:40;19.02;;;7.82;;
79574;SDS011;69044;48.198;11.468;2024-03-08T08:45:07;19.52;;;8.20;;
79574;SDS011;69044;48.198;11.468;2024-03-08T08:47:35;23.00;;;9.18;;
79574;SDS011;69044;48.198;11.468;2024-03-08T08:50:02;22.73;;;8.52;;
79574;SDS011;69044;48.198;11.468;2024-03-08T08:52:30;19.63;;;8.77;;
79574;SDS011;69044;48.198;11.468;2024-03-08T08:54:58;24.33;;;9.65;;
79574;SDS011;69044;48.198;11.468;2024-03-08T08:57:26;20.35;;;8.82;;
79574;SDS011;69044;48.198;11.468;2024-03-08T08:59:54;20.92;;;8.57;;
79574;SDS011;69044;48.198;11.468;2024-03-08T09:02:21;25.92;;;8.52;;
79574;SDS011;69044;48.198;11.468;2024-03-08T09:04:48;19.67;;;7.40;;
79574;SDS011;69044;48.198;11.468;2024-03-08T09:07:16;20.65;;;8.50;;
79574;SDS011;69044;48.198;11.468;2024-03-08T09:09:44;24.05;;;8.88;;
79574;SDS011;69044;48.198;11.468;2024-03-08T09:12:13;24.23;;;9.45;;
79574;SDS011;69044;48.198;11.468;2024-03-08T09:14:40;21.88;;;8.48;;
79574;SDS011;69044;48.198;11.468;2024-03-08T09:17:08;23.20;;;8.55;;
79574;SDS011;69044;48.198;11.468;2024-03-08T09:19:35;21.15;;;7.70;;
79574;SDS011;69044;48.198;11.468;2024-03-08T09:22:02;21.65;;;7.97;;
79574;SDS011;69044;48.198;11.468;2024-03-08T09:24:30;24.33;;;9.15;;
79574;SDS011;69044;48.198;11.468;2024-03-08T09:26:57;24.35;;;8.77;;
79574;SDS011;69044;48.198;11.468;2024-03-08T09:29:26;23.00;;;8.60;;
79574;SDS011;69044;48.198;11.468;2024-03-08T09:31:54;23.27;;;8.57;;
79574;SDS011;69044;48.198;11.468;2024-03-08T09:34:21;23.27;;;8.82;;
79574;SDS011;69044;48.198;11.468;2024-03-08T09:36:49;21.48;;;8.27;;
79574;SDS011;69044;48.198;11.468;2024-03-08T09:39:17;22.80;;;8.80;;
79574;SDS011;69044;48.198;11.468;2024-03-08T09:44:14;23.63;;;8.60;;
79574;SDS011;69044;48.198;11.468;2024-03-08T09:46:42;20.55;;;8.55;;
79574;SDS011;69044;48.198;11.468;2024-03-08T09:49:10;18.30;;;7.95;;
79574;SDS011;69044;48.198;11.468;2024-03-08T09:51:37;24.23;;;8.80;;
79574;SDS011;69044;48.198;11.468;2024-03-08T09:54:07;21.40;;;8.82;;
79574;SDS011;69044;48.198;11.468;2024-03-08T09:56:34;20.77;;;8.63;;
79574;SDS011;69044;48.198;11.468;2024-03-08T09:59:02;19.50;;;7.93;;
79574;SDS011;69044;48.198;11.468;2024-03-08T10:02:08;19.65;;;8.23;;
79574;SDS011;69044;48.198;11.468;2024-03-08T10:04:40;21.98;;;8.90;;
79574;SDS011;69044;48.198;11.468;2024-03-08T10:07:08;20.80;;;8.70;;
79574;SDS011;69044;48.198;11.468;2024-03-08T10:09:36;21.90;;;9.02;;
79574;SDS011;69044;48.198;11.468;2024-03-08T10:12:04;26.70;;;9.85;;
79574;SDS011;69044;48.198;11.468;2024-03-08T10:14:32;19.27;;;8.45;;
79574;SDS011;69044;48.198;11.468;2024-03-08T10:16:59;61.67;;;22.08;;
79574;SDS011;69044;48.198;11.468;2024-03-08T10:19:27;22.88;;;8.82;;
79574;SDS011;69044;48.198;11.468;2024-03-08T10:21:55;17.77;;;7.85;;
79574;SDS011;69044;48.198;11.468;2024-03-08T10:26:51;16.25;;;6.95;;
79574;SDS011;69044;48.198;11.468;2024-03-08T10:29:20;21.27;;;8.48;;
79574;SDS011;69044;48.198;11.468;2024-03-08T10:31:47;21.40;;;8.80;;
79574;SDS011;69044;48.198;11.468;2024-03-08T10:34:16;15.85;;;7.20;;
79574;SDS011;69044;48.198;11.468;2024-03-08T10:36:45;17.50;;;8.43;;
79574;SDS011;69044;48.198;11.468;2024-03-08T10:39:15;18.95;;;7.22;;
79574;SDS011;69044;48.198;11.468;2024-03-08T10:41:50;20.67;;;8.07;;
79574;SDS011;69044;48.198;11.468;2024-03-08T10:44:23;17.95;;;8.10;;
79574;SDS011;69044;48.198;11.468;2024-03-08T10:47:00;19.25;;;7.72;;
79574;SDS011;69044;48.198;11.468;2024-03-08T10:49:30;16.52;;;7.85;;
79574;SDS011;69044;48.198;11.468;2024-03-08T10:52:02;18.55;;;7.22;;
79574;SDS011;69044;48.198;11.468;2024-03-08T10:54:31;18.85;;;7.72;;
79574;SDS011;69044;48.198;11.468;2024-03-08T10:56:59;21.08;;;8.13;;
79574;SDS011;69044;48.198;11.468;2024-03-08T10:59:26;16.10;;;7.90;;
79574;SDS011;69044;48.198;11.468;2024-03-08T11:01:54;18.55;;;8.02;;
79574;SDS011;69044;48.198;11.468;2024-03-08T11:04:21;20.17;;;8.07;;
79574;SDS011;69044;48.198;11.468;2024-03-08T11:06:49;17.60;;;7.80;;
79574;SDS011;69044;48.198;11.468;2024-03-08T11:09:28;17.20;;;8.27;;
79574;SDS011;69044;48.198;11.468;2024-03-08T11:14:45;18.15;;;7.78;;
79574;SDS011;69044;48.198;11.468;2024-03-08T11:17:14;18.88;;;8.55;;
79574;SDS011;69044;48.198;11.468;2024-03-08T11:19:46;18.00;;;8.07;;
79574;SDS011;69044;48.198;11.468;2024-03-08T11:22:21;18.25;;;8.15;;
79574;SDS011;69044;48.198;11.468;2024-03-08T11:24:54;17.60;;;7.95;;
79574;SDS011;69044;48.198;11.468;2024-03-08T11:27:28;19.55;;;8.02;;
79574;SDS011;69044;48.198;11.468;2024-03-08T11:29:59;17.48;;;7.35;;
79574;SDS011;69044;48.198;11.468;2024-03-08T11:32:27;14.95;;;7.15;;
79574;SDS011;69044;48.198;11.468;2024-03-08T11:34:54;16.88;;;7.38;;
79574;SDS011;69044;48.198;11.468;2024-03-08T11:37:21;15.95;;;7.40;;
79574;SDS011;69044;48.198;11.468;2024-03-08T11:39:49;17.65;;;7.90;;
79574;SDS011;69044;48.198;11.468;2024-03-08T11:42:18;15.40;;;7.63;;
79574;SDS011;69044;48.198;11.468;2024-03-08T11:44:46;17.65;;;7.85;;
79574;SDS011;69044;48.198;11.468;2024-03-08T11:47:14;15.75;;;6.95;;
79574;SDS011;69044;48.198;11.468;2024-03-08T11:49:42;18.30;;;7.90;;
79574;SDS011;69044;48.198;11.468;2024-03-08T11:52:11;17.83;;;7.22;;
79574;SDS011;69044;48.198;11.468;2024-03-08T11:54:39;14.65;;;6.78;;
79574;SDS011;69044;48.198;11.468;2024-03-08T11:57:06;15.20;;;7.03;;
79574;SDS011;69044;48.198;11.468;2024-03-08T11:59:36;16.65;;;6.63;;
79574;SDS011;69044;48.198;11.468;2024-03-08T12:02:04;13.15;;;6.22;;
79574;SDS011;69044;48.198;11.468;2024-03-08T12:04:32;15.57;;;6.53;;
79574;SDS011;69044;48.198;11.468;2024-03-08T12:07:01;17.73;;;7.25;;
79574;SDS011;69044;48.198;11.468;2024-03-08T12:09:34;13.23;;;7.03;;
79574;SDS011;69044;48.198;11.468;2024-03-08T12:12:02;15.00;;;6.85;;
79574;SDS011;69044;48.198;11.468;2024-03-08T12:14:30;13.35;;;6.43;;
79574;SDS011;69044;48.198;11.468;2024-03-08T12:16:59;13.75;;;6.45;;
79574;SDS011;69044;48.198;11.468;2024-03-08T12:19:27;13.10;;;6.47;;
79574;SDS011;69044;48.198;11.468;2024-03-08T12:21:54;17.58;;;7.57;;
79574;SDS011;69044;48.198;11.468;2024-03-08T12:24:22;17.80;;;7.50;;
79574;SDS011;69044;48.198;11.468;2024-03-08T12:26:49;14.43;;;6.30;;
79574;SDS011;69044;48.198;11.468;2024-03-08T12:29:17;15.60;;;6.18;;
79574;SDS011;69044;48.198;11.468;2024-03-08T12:31:46;16.08;;;7.40;;
79574;SDS011;69044;48.198;11.468;2024-03-08T12:34:15;16.52;;;6.82;;
79574;SDS011;69044;48.198;11.468;2024-03-08T12:39:15;15.98;;;7.03;;
79574;SDS011;69044;48.198;11.468;2024-03-08T12:41:43;14.25;;;6.75;;
79574;SDS011;69044;48.198;11.468;2024-03-08T12:44:12;17.50;;;7.70;;
79574;SDS011;69044;48.198;11.468;2024-03-08T12:46:39;15.38;;;7.32;;
79574;SDS011;69044;48.198;11.468;2024-03-08T12:49:07;15.05;;;6.97;;
79574;SDS011;69044;48.198;11.468;2024-03-08T12:51:36;16.52;;;6.78;;
79574;SDS011;69044;48.198;11.468;2024-03-08T12:54:04;15.98;;;7.50;;
79574;SDS011;69044;48.198;11.468;2024-03-08T12:59:00;15.57;;;7.43;;
79574;SDS011;69044;48.198;11.468;2024-03-08T13:01:28;14.90;;;6.85;;
79574;SDS011;69044;48.198;11.468;2024-03-08T13:03:55;15.75;;;7.18;;
79574;SDS011;69044;48.198;11.468;2024-03-08T13:06:22;15.68;;;7.03;;
79574;SDS011;69044;48.198;11.468;2024-03-08T13:08:51;15.05;;;6.95;;
79574;SDS011;69044;48.198;11.468;2024-03-08T13:11:19;13.02;;;6.68;;
79574;SDS011;69044;48.198;11.468;2024-03-08T13:13:46;13.68;;;7.10;;
79574;SDS011;69044;48.198;11.468;2024-03-08T13:16:13;13.20;;;6.32;;
79574;SDS011;69044;48.198;11.468;2024-03-08T13:18:42;14.55;;;6.97;;
79574;SDS011;69044;48.198;11.468;2024-03-08T13:21:10;13.93;;;6.53;;
79574;SDS011;69044;48.198;11.468;2024-03-08T13:23:40;16.40;;;6.80;;
79574;SDS011;69044;48.198;11.468;2024-03-08T13:26:13;13.95;;;6.18;;
79574;SDS011;69044;48.198;11.468;2024-03-08T13:28:41;14.50;;;5.78;;
79574;SDS011;69044;48.198;11.468;2024-03-08T13:31:08;13.80;;;6.38;;
79574;SDS011;69044;48.198;11.468;2024-03-08T13:33:36;13.93;;;6.38;;
79574;SDS011;69044;48.198;11.468;2024-03-08T13:36:05;13.80;;;6.65;;
79574;SDS011;69044;48.198;11.468;2024-03-08T13:38:41;14.38;;;6.10;;
79574;SDS011;69044;48.198;11.468;2024-03-08T13:41:10;12.52;;;6.18;;
79574;SDS011;69044;48.198;11.468;2024-03-08T13:43:41;13.13;;;6.57;;
79574;SDS011;69044;48.198;11.468;2024-03-08T13:46:08;13.65;;;6.32;;
79574;SDS011;69044;48.198;11.468;2024-03-08T13:48:36;14.10;;;6.75;;
79574;SDS011;69044;48.198;11.468;2024-03-08T13:51:04;15.20;;;6.38;;
79574;SDS011;69044;48.198;11.468;2024-03-08T13:53:32;15.98;;;6.47;;
79574;SDS011;69044;48.198;11.468;2024-03-08T13:56:00;13.60;;;6.40;;
79574;SDS011;69044;48.198;11.468;2024-03-08T13:58:27;16.30;;;7.00;;
79574;SDS011;69044;48.198;11.468;2024-03-08T14:00:56;22.38;;;10.40;;
79574;SDS011;69044;48.198;11.468;2024-03-08T14:05:50;13.20;;;6.45;;
79574;SDS011;69044;48.198;11.468;2024-03-08T14:08:17;16.42;;;7.13;;
79574;SDS011;69044;48.198;11.468;2024-03-08T14:10:45;12.75;;;6.57;;
79574;SDS011;69044;48.198;11.468;2024-03-08T14:13:12;14.30;;;6.28;;
79574;SDS011;69044;48.198;11.468;2024-03-08T14:15:41;16.13;;;7.05;;
79574;SDS011;69044;48.198;11.468;2024-03-08T14:18:12;12.35;;;6.25;;
79574;SDS011;69044;48.198;11.468;2024-03-08T14:20:39;16.00;;;6.78;;
79574;SDS011;69044;48.198;11.468;2024-03-08T14:23:07;15.10;;;7.55;;
79574;SDS011;69044;48.198;11.468;2024-03-08T14:25:35;12.70;;;6.40;;
79574;SDS011;69044;48.198;11.468;2024-03-08T14:28:02;12.40;;;6.32;;
79574;SDS011;69044;48.198;11.468;2024-03-08T14:30:32;13.90;;;7.05;;
79574;SDS011;69044;48.198;11.468;2024-03-08T14:33:03;14.50;;;6.72;;
79574;SDS011;69044;48.198;11.468;2024-03-08T14:35:36;13.10;;;6.70;;
79574;SDS011;69044;48.198;11.468;2024-03-08T14:38:03;13.38;;;6.70;;
79574;SDS011;69044;48.198;11.468;2024-03-08T14:40:34;13.32;;;6.60;;
79574;SDS011;69044;48.198;11.468;2024-03-08T14:43:02;14.77;;;6.85;;
79574;SDS011;69044;48.198;11.468;2024-03-08T14:45:30;13.90;;;6.38;;
79574;SDS011;69044;48.198;11.468;2024-03-08T14:47:57;14.73;;;6.40;;
79574;SDS011;69044;48.198;11.468;2024-03-08T14:50:25;23.73;;;6.68;;
79574;SDS011;69044;48.198;11.468;2024-03-08T14:52:53;12.55;;;6.38;;